sensor_id;sensor_type;location;lat;lon;timestamp;P1;durP1;ratioP1;P2;durP2;ratioP2
8632;SDS011;4354;49.832;10.746;2023-02-18T00:00:27;13.30;;;11.50;;
8632;SDS011;4354;49.832;10.746;2023-02-18T00:02:54;12.73;;;10.90;;
8632;SDS011;4354;49.832;10.746;2023-02-18T00:05:21;13.70;;;12.30;;
8632;SDS011;4354;49.832;10.746;2023-02-18T00:07:48;13.70;;;12.30;;
8632;SDS011;4354;49.832;10.746;2023-02-18T00:10:15;13.90;;;12.57;;
8632;SDS011;4354;49.832;10.746;2023-02-18T00:12:42;14.80;;;12.80;;
8632;SDS011;4354;49.832;10.746;2023-02-18T00:15:09;15.07;;;13.63;;
8632;SDS011;4354;49.832;10.746;2023-02-18T00:17:36;15.47;;;13.97;;
8632;SDS011;4354;49.832;10.746;2023-02-18T00:20:04;15.50;;;13.67;;
8632;SDS011;4354;49.832;10.746;2023-02-18T00:22:31;15.03;;;13.40;;
8632;SDS011;4354;49.832;10.746;2023-02-18T00:24:58;14.57;;;13.10;;
8632;SDS011;4354;49.832;10.746;2023-02-18T00:27:25;14.07;;;12.23;;
8632;SDS011;4354;49.832;10.746;2023-02-18T00:29:52;13.57;;;12.17;;
8632;SDS011;4354;49.832;10.746;2023-02-18T00:32:18;13.93;;;12.17;;
8632;SDS011;4354;49.832;10.746;2023-02-18T00:34:45;13.03;;;11.83;;
8632;SDS011;4354;49.832;10.746;2023-02-18T00:37:12;12.37;;;11.13;;
8632;SDS011;4354;49.832;10.746;2023-02-18T00:39:39;12.60;;;11.40;;
8632;SDS011;4354;49.832;10.746;2023-02-18T00:42:05;12.10;;;11.00;;
8632;SDS011;4354;49.832;10.746;2023-02-18T00:44:32;10.57;;;9.57;;
8632;SDS011;4354;49.832;10.746;2023-02-18T00:46:59;10.67;;;9.60;;
8632;SDS011;4354;49.832;10.746;2023-02-18T00:49:25;10.83;;;9.83;;
8632;SDS011;4354;49.832;10.746;2023-02-18T00:51:52;10.27;;;9.27;;
8632;SDS011;4354;49.832;10.746;2023-02-18T00:54:19;9.80;;;8.90;;
8632;SDS011;4354;49.832;10.746;2023-02-18T00:56:46;9.63;;;8.73;;
8632;SDS011;4354;49.832;10.746;2023-02-18T00:59:13;10.00;;;9.10;;
8632;SDS011;4354;49.832;10.746;2023-02-18T01:01:39;10.40;;;9.40;;
8632;SDS011;4354;49.832;10.746;2023-02-18T01:04:06;9.80;;;8.90;;
8632;SDS011;4354;49.832;10.746;2023-02-18T01:06:33;9.03;;;8.23;;
8632;SDS011;4354;49.832;10.746;2023-02-18T01:09:00;9.83;;;8.93;;
8632;SDS011;4354;49.832;10.746;2023-02-18T01:11:27;9.17;;;8.37;;
8632;SDS011;4354;49.832;10.746;2023-02-18T01:13:53;9.57;;;8.67;;
8632;SDS011;4354;49.832;10.746;2023-02-18T01:16:20;9.70;;;8.70;;
8632;SDS011;4354;49.832;10.746;2023-02-18T01:18:47;9.40;;;8.50;;
8632;SDS011;4354;49.832;10.746;2023-02-18T01:21:14;10.20;;;9.30;;
8632;SDS011;4354;49.832;10.746;2023-02-18T01:23:41;9.80;;;8.90;;
8632;SDS011;4354;49.832;10.746;2023-02-18T01:26:08;10.63;;;9.63;;
8632;SDS011;4354;49.832;10.746;2023-02-18T01:28:36;10.57;;;9.50;;
8632;SDS011;4354;49.832;10.746;2023-02-18T01:31:03;11.63;;;10.20;;
8632;SDS011;4354;49.832;10.746;2023-02-18T01:33:32;10.33;;;9.27;;
8632;SDS011;4354;49.832;10.746;2023-02-18T01:35:59;11.10;;;10.03;;
8632;SDS011;4354;49.832;10.746;2023-02-18T01:38:26;11.70;;;10.53;;
8632;SDS011;4354;49.832;10.746;2023-02-18T01:40:53;12.07;;;9.93;;
8632;SDS011;4354;49.832;10.746;2023-02-18T01:43:21;11.23;;;10.23;;
8632;SDS011;4354;49.832;10.746;2023-02-18T01:48:43;12.23;;;10.40;;
8632;SDS011;4354;49.832;10.746;2023-02-18T01:56:15;11.60;;;10.40;;
8632;SDS011;4354;49.832;10.746;2023-02-18T01:58:50;10.87;;;9.87;;
8632;SDS011;4354;49.832;10.746;2023-02-18T02:01:19;12.10;;;10.67;;
8632;SDS011;4354;49.832;10.746;2023-02-18T02:03:46;11.80;;;10.60;;
8632;SDS011;4354;49.832;10.746;2023-02-18T02:06:14;11.27;;;10.17;;
8632;SDS011;4354;49.832;10.746;2023-02-18T02:08:43;12.57;;;10.40;;
8632;SDS011;4354;49.832;10.746;2023-02-18T02:11:22;9.70;;;8.57;;
8632;SDS011;4354;49.832;10.746;2023-02-18T02:14:09;9.60;;;8.60;;
8632;SDS011;4354;49.832;10.746;2023-02-18T02:17:03;8.63;;;7.67;;
8632;SDS011;4354;49.832;10.746;2023-02-18T02:23:27;7.03;;;5.87;;
8632;SDS011;4354;49.832;10.746;2023-02-18T02:31:34;6.20;;;5.60;;
8632;SDS011;4354;49.832;10.746;2023-02-18T02:34:17;6.10;;;5.50;;
8632;SDS011;4354;49.832;10.746;2023-02-18T02:37:05;6.90;;;6.30;;
8632;SDS011;4354;49.832;10.746;2023-02-18T02:39:41;6.87;;;6.27;;
8632;SDS011;4354;49.832;10.746;2023-02-18T02:44:57;6.13;;;5.63;;
8632;SDS011;4354;49.832;10.746;2023-02-18T02:47:33;6.33;;;5.70;;
8632;SDS011;4354;49.832;10.746;2023-02-18T02:53:20;6.20;;;5.60;;
8632;SDS011;4354;49.832;10.746;2023-02-18T02:55:49;5.60;;;5.10;;
8632;SDS011;4354;49.832;10.746;2023-02-18T02:58:17;5.63;;;5.10;;
8632;SDS011;4354;49.832;10.746;2023-02-18T03:11:17;4.57;;;4.10;;
8632;SDS011;4354;49.832;10.746;2023-02-18T03:13:49;3.80;;;3.50;;
8632;SDS011;4354;49.832;10.746;2023-02-18T03:16:34;4.20;;;3.90;;
8632;SDS011;4354;49.832;10.746;2023-02-18T03:19:11;4.03;;;3.73;;
8632;SDS011;4354;49.832;10.746;2023-02-18T03:22:02;4.73;;;4.23;;
8632;SDS011;4354;49.832;10.746;2023-02-18T03:27:03;4.90;;;4.50;;
8632;SDS011;4354;49.832;10.746;2023-02-18T03:29:38;5.13;;;4.73;;
8632;SDS011;4354;49.832;10.746;2023-02-18T03:32:07;4.90;;;4.50;;
8632;SDS011;4354;49.832;10.746;2023-02-18T03:34:39;5.60;;;5.10;;
8632;SDS011;4354;49.832;10.746;2023-02-18T03:37:09;5.10;;;4.70;;
8632;SDS011;4354;49.832;10.746;2023-02-18T03:39:38;5.53;;;4.70;;
8632;SDS011;4354;49.832;10.746;2023-02-18T03:42:07;5.33;;;4.90;;
8632;SDS011;4354;49.832;10.746;2023-02-18T03:44:34;5.03;;;4.63;;
8632;SDS011;4354;49.832;10.746;2023-02-18T03:47:00;5.10;;;4.70;;
8632;SDS011;4354;49.832;10.746;2023-02-18T03:49:28;5.87;;;5.27;;
8632;SDS011;4354;49.832;10.746;2023-02-18T03:51:54;5.43;;;5.03;;
8632;SDS011;4354;49.832;10.746;2023-02-18T03:54:21;6.30;;;5.70;;
8632;SDS011;4354;49.832;10.746;2023-02-18T03:56:48;5.37;;;4.87;;
8632;SDS011;4354;49.832;10.746;2023-02-18T03:59:14;5.80;;;5.30;;
8632;SDS011;4354;49.832;10.746;2023-02-18T04:01:41;6.23;;;5.63;;
8632;SDS011;4354;49.832;10.746;2023-02-18T04:04:08;6.50;;;5.90;;
8632;SDS011;4354;49.832;10.746;2023-02-18T04:06:35;6.97;;;6.20;;
8632;SDS011;4354;49.832;10.746;2023-02-18T04:09:04;6.50;;;5.90;;
8632;SDS011;4354;49.832;10.746;2023-02-18T04:11:35;7.20;;;6.50;;
8632;SDS011;4354;49.832;10.746;2023-02-18T04:14:03;6.90;;;6.23;;
8632;SDS011;4354;49.832;10.746;2023-02-18T04:16:31;7.13;;;6.43;;
8632;SDS011;4354;49.832;10.746;2023-02-18T04:18:58;7.17;;;6.43;;
8632;SDS011;4354;49.832;10.746;2023-02-18T04:21:25;7.33;;;6.63;;
8632;SDS011;4354;49.832;10.746;2023-02-18T04:23:52;8.23;;;6.63;;
8632;SDS011;4354;49.832;10.746;2023-02-18T04:26:19;7.30;;;6.60;;
8632;SDS011;4354;49.832;10.746;2023-02-18T04:28:46;7.33;;;6.63;;
8632;SDS011;4354;49.832;10.746;2023-02-18T04:31:13;6.87;;;6.23;;
8632;SDS011;4354;49.832;10.746;2023-02-18T04:33:40;6.77;;;6.17;;
8632;SDS011;4354;49.832;10.746;2023-02-18T04:36:07;6.53;;;5.93;;
8632;SDS011;4354;49.832;10.746;2023-02-18T04:38:35;5.70;;;5.20;;
8632;SDS011;4354;49.832;10.746;2023-02-18T04:41:02;7.10;;;5.37;;
8632;SDS011;4354;49.832;10.746;2023-02-18T04:43:29;7.30;;;5.23;;
8632;SDS011;4354;49.832;10.746;2023-02-18T04:45:55;5.80;;;5.30;;
8632;SDS011;4354;49.832;10.746;2023-02-18T04:48:22;5.23;;;4.73;;
8632;SDS011;4354;49.832;10.746;2023-02-18T04:50:49;7.27;;;4.87;;
8632;SDS011;4354;49.832;10.746;2023-02-18T04:53:16;5.20;;;4.70;;
8632;SDS011;4354;49.832;10.746;2023-02-18T04:55:43;4.73;;;4.33;;
8632;SDS011;4354;49.832;10.746;2023-02-18T04:58:14;5.40;;;4.90;;
8632;SDS011;4354;49.832;10.746;2023-02-18T05:00:40;5.23;;;4.73;;
8632;SDS011;4354;49.832;10.746;2023-02-18T05:03:07;4.50;;;4.10;;
8632;SDS011;4354;49.832;10.746;2023-02-18T05:05:34;5.20;;;4.70;;
8632;SDS011;4354;49.832;10.746;2023-02-18T05:08:01;4.80;;;4.40;;
8632;SDS011;4354;49.832;10.746;2023-02-18T05:10:28;5.00;;;4.50;;
8632;SDS011;4354;49.832;10.746;2023-02-18T05:12:55;5.40;;;4.90;;
8632;SDS011;4354;49.832;10.746;2023-02-18T05:15:22;5.33;;;4.83;;
8632;SDS011;4354;49.832;10.746;2023-02-18T05:17:49;5.87;;;4.63;;
8632;SDS011;4354;49.832;10.746;2023-02-18T05:20:16;5.87;;;5.23;;
8632;SDS011;4354;49.832;10.746;2023-02-18T05:22:43;6.30;;;4.60;;
8632;SDS011;4354;49.832;10.746;2023-02-18T05:25:09;5.20;;;4.70;;
8632;SDS011;4354;49.832;10.746;2023-02-18T05:27:38;5.70;;;4.43;;
8632;SDS011;4354;49.832;10.746;2023-02-18T05:30:05;6.87;;;4.80;;
8632;SDS011;4354;49.832;10.746;2023-02-18T05:32:32;5.20;;;4.70;;
8632;SDS011;4354;49.832;10.746;2023-02-18T05:34:59;6.17;;;5.37;;
8632;SDS011;4354;49.832;10.746;2023-02-18T05:37:26;6.00;;;5.40;;
8632;SDS011;4354;49.832;10.746;2023-02-18T05:39:53;7.97;;;5.40;;
8632;SDS011;4354;49.832;10.746;2023-02-18T05:42:19;6.83;;;5.20;;
8632;SDS011;4354;49.832;10.746;2023-02-18T05:44:47;7.97;;;5.13;;
8632;SDS011;4354;49.832;10.746;2023-02-18T05:47:14;7.90;;;5.50;;
8632;SDS011;4354;49.832;10.746;2023-02-18T05:49:41;5.47;;;4.97;;
8632;SDS011;4354;49.832;10.746;2023-02-18T05:52:09;5.97;;;4.53;;
8632;SDS011;4354;49.832;10.746;2023-02-18T05:54:38;8.87;;;4.67;;
8632;SDS011;4354;49.832;10.746;2023-02-18T05:57:05;6.10;;;4.47;;
8632;SDS011;4354;49.832;10.746;2023-02-18T05:59:31;5.10;;;4.50;;
8632;SDS011;4354;49.832;10.746;2023-02-18T06:01:58;5.87;;;4.67;;
8632;SDS011;4354;49.832;10.746;2023-02-18T06:04:25;5.17;;;4.63;;
8632;SDS011;4354;49.832;10.746;2023-02-18T06:06:52;3.90;;;3.50;;
8632;SDS011;4354;49.832;10.746;2023-02-18T06:09:20;3.50;;;2.90;;
8632;SDS011;4354;49.832;10.746;2023-02-18T06:11:47;3.20;;;2.73;;
8632;SDS011;4354;49.832;10.746;2023-02-18T06:14:14;3.50;;;2.90;;
8632;SDS011;4354;49.832;10.746;2023-02-18T06:16:41;3.47;;;3.00;;
8632;SDS011;4354;49.832;10.746;2023-02-18T06:19:08;2.67;;;1.83;;
8632;SDS011;4354;49.832;10.746;2023-02-18T06:21:35;1.90;;;1.80;;
8632;SDS011;4354;49.832;10.746;2023-02-18T06:24:01;1.53;;;1.43;;
8632;SDS011;4354;49.832;10.746;2023-02-18T06:26:28;2.33;;;1.73;;
8632;SDS011;4354;49.832;10.746;2023-02-18T06:28:55;1.73;;;1.63;;
8632;SDS011;4354;49.832;10.746;2023-02-18T06:31:22;1.93;;;1.70;;
8632;SDS011;4354;49.832;10.746;2023-02-18T06:33:49;1.80;;;1.70;;
8632;SDS011;4354;49.832;10.746;2023-02-18T06:36:16;1.80;;;1.70;;
8632;SDS011;4354;49.832;10.746;2023-02-18T06:38:43;2.50;;;1.87;;
8632;SDS011;4354;49.832;10.746;2023-02-18T06:41:11;1.80;;;1.70;;
8632;SDS011;4354;49.832;10.746;2023-02-18T06:43:39;2.03;;;1.87;;
8632;SDS011;4354;49.832;10.746;2023-02-18T06:46:06;2.03;;;1.70;;
8632;SDS011;4354;49.832;10.746;2023-02-18T06:48:34;1.70;;;1.60;;
8632;SDS011;4354;49.832;10.746;2023-02-18T06:51:01;2.47;;;1.40;;
8632;SDS011;4354;49.832;10.746;2023-02-18T06:53:28;2.73;;;2.20;;
8632;SDS011;4354;49.832;10.746;2023-02-18T06:55:55;2.27;;;2.07;;
8632;SDS011;4354;49.832;10.746;2023-02-18T06:58:22;4.63;;;2.60;;
8632;SDS011;4354;49.832;10.746;2023-02-18T07:00:49;4.27;;;3.87;;
8632;SDS011;4354;49.832;10.746;2023-02-18T07:03:16;5.23;;;4.73;;
8632;SDS011;4354;49.832;10.746;2023-02-18T07:05:42;6.37;;;5.43;;
8632;SDS011;4354;49.832;10.746;2023-02-18T07:08:09;7.23;;;5.60;;
8632;SDS011;4354;49.832;10.746;2023-02-18T07:10:36;6.33;;;5.73;;
8632;SDS011;4354;49.832;10.746;2023-02-18T07:13:03;6.47;;;5.87;;
8632;SDS011;4354;49.832;10.746;2023-02-18T07:15:30;8.33;;;7.50;;
8632;SDS011;4354;49.832;10.746;2023-02-18T07:17:57;9.87;;;8.03;;
8632;SDS011;4354;49.832;10.746;2023-02-18T07:20:24;14.07;;;9.37;;
8632;SDS011;4354;49.832;10.746;2023-02-18T07:22:52;11.33;;;10.20;;
8632;SDS011;4354;49.832;10.746;2023-02-18T07:25:19;12.83;;;11.53;;
8632;SDS011;4354;49.832;10.746;2023-02-18T07:27:48;12.47;;;11.17;;
8632;SDS011;4354;49.832;10.746;2023-02-18T07:30:15;12.87;;;11.47;;
8632;SDS011;4354;49.832;10.746;2023-02-18T07:32:43;13.20;;;11.40;;
8632;SDS011;4354;49.832;10.746;2023-02-18T07:35:10;14.00;;;12.57;;
8632;SDS011;4354;49.832;10.746;2023-02-18T07:37:43;13.33;;;11.60;;
8632;SDS011;4354;49.832;10.746;2023-02-18T07:40:12;13.90;;;12.00;;
8632;SDS011;4354;49.832;10.746;2023-02-18T07:42:40;14.37;;;12.40;;
8632;SDS011;4354;49.832;10.746;2023-02-18T07:45:07;14.73;;;13.33;;
8632;SDS011;4354;49.832;10.746;2023-02-18T07:47:34;14.37;;;12.87;;
8632;SDS011;4354;49.832;10.746;2023-02-18T07:50:01;13.83;;;12.33;;
8632;SDS011;4354;49.832;10.746;2023-02-18T07:52:28;13.77;;;12.47;;
8632;SDS011;4354;49.832;10.746;2023-02-18T07:54:55;12.40;;;11.20;;
8632;SDS011;4354;49.832;10.746;2023-02-18T07:57:21;13.53;;;12.23;;
8632;SDS011;4354;49.832;10.746;2023-02-18T07:59:48;13.00;;;11.47;;
8632;SDS011;4354;49.832;10.746;2023-02-18T08:02:16;12.27;;;11.17;;
8632;SDS011;4354;49.832;10.746;2023-02-18T08:04:44;12.57;;;11.27;;
8632;SDS011;4354;49.832;10.746;2023-02-18T08:07:13;12.77;;;11.57;;
8632;SDS011;4354;49.832;10.746;2023-02-18T08:09:40;11.40;;;10.30;;
8632;SDS011;4354;49.832;10.746;2023-02-18T08:12:08;10.53;;;9.53;;
8632;SDS011;4354;49.832;10.746;2023-02-18T08:14:35;10.67;;;9.57;;
8632;SDS011;4354;49.832;10.746;2023-02-18T08:17:02;10.50;;;9.47;;
8632;SDS011;4354;49.832;10.746;2023-02-18T08:19:28;9.20;;;8.40;;
8632;SDS011;4354;49.832;10.746;2023-02-18T08:21:55;9.03;;;8.23;;
8632;SDS011;4354;49.832;10.746;2023-02-18T08:24:25;9.15;;;8.20;;
8632;SDS011;4354;49.832;10.746;2023-02-18T08:26:52;8.00;;;7.28;;
8632;SDS011;4354;49.832;10.746;2023-02-18T08:29:26;7.93;;;7.22;;
8632;SDS011;4354;49.832;10.746;2023-02-18T08:31:52;6.80;;;6.20;;
8632;SDS011;4354;49.832;10.746;2023-02-18T08:34:22;7.20;;;6.45;;
8632;SDS011;4354;49.832;10.746;2023-02-18T08:36:49;6.78;;;6.15;;
8632;SDS011;4354;49.832;10.746;2023-02-18T08:39:15;6.93;;;6.32;;
8632;SDS011;4354;49.832;10.746;2023-02-18T08:41:42;6.35;;;5.85;;
8632;SDS011;4354;49.832;10.746;2023-02-18T08:44:09;7.00;;;6.40;;
8632;SDS011;4354;49.832;10.746;2023-02-18T08:46:35;7.53;;;6.82;;
8632;SDS011;4354;49.832;10.746;2023-02-18T08:49:03;7.30;;;6.63;;
8632;SDS011;4354;49.832;10.746;2023-02-18T08:51:30;7.30;;;6.70;;
8632;SDS011;4354;49.832;10.746;2023-02-18T08:53:57;6.85;;;6.35;;
8632;SDS011;4354;49.832;10.746;2023-02-18T08:56:24;7.78;;;7.05;;
8632;SDS011;4354;49.832;10.746;2023-02-18T08:58:51;7.88;;;7.18;;
8632;SDS011;4354;49.832;10.746;2023-02-18T09:01:18;9.23;;;7.00;;
8632;SDS011;4354;49.832;10.746;2023-02-18T09:03:46;8.55;;;7.75;;
8632;SDS011;4354;49.832;10.746;2023-02-18T09:06:13;8.63;;;7.40;;
8632;SDS011;4354;49.832;10.746;2023-02-18T09:08:40;8.88;;;8.07;;
8632;SDS011;4354;49.832;10.746;2023-02-18T09:11:07;8.40;;;7.60;;
8632;SDS011;4354;49.832;10.746;2023-02-18T09:13:36;7.55;;;6.95;;
8632;SDS011;4354;49.832;10.746;2023-02-18T09:16:09;7.50;;;6.82;;
8632;SDS011;4354;49.832;10.746;2023-02-18T09:18:38;7.25;;;6.63;;
8632;SDS011;4354;49.832;10.746;2023-02-18T09:21:05;7.60;;;6.97;;
8632;SDS011;4354;49.832;10.746;2023-02-18T09:23:34;7.63;;;6.93;;
8632;SDS011;4354;49.832;10.746;2023-02-18T09:26:05;8.43;;;7.13;;
8632;SDS011;4354;49.832;10.746;2023-02-18T09:28:34;7.57;;;6.38;;
8632;SDS011;4354;49.832;10.746;2023-02-18T09:31:02;8.70;;;7.90;;
8632;SDS011;4354;49.832;10.746;2023-02-18T09:33:35;8.23;;;7.22;;
8632;SDS011;4354;49.832;10.746;2023-02-18T09:36:03;7.60;;;6.90;;
8632;SDS011;4354;49.832;10.746;2023-02-18T09:38:30;7.50;;;6.80;;
8632;SDS011;4354;49.832;10.746;2023-02-18T09:40:57;8.50;;;6.95;;
8632;SDS011;4354;49.832;10.746;2023-02-18T09:43:31;7.70;;;7.03;;
8632;SDS011;4354;49.832;10.746;2023-02-18T09:46:51;8.60;;;7.80;;
8632;SDS011;4354;49.832;10.746;2023-02-18T09:49:01;8.23;;;7.38;;
8632;SDS011;4354;49.832;10.746;2023-02-18T09:51:29;7.88;;;7.18;;
8632;SDS011;4354;49.832;10.746;2023-02-18T09:53:56;8.25;;;7.45;;
8632;SDS011;4354;49.832;10.746;2023-02-18T09:56:28;7.80;;;7.10;;
8632;SDS011;4354;49.832;10.746;2023-02-18T09:58:58;8.00;;;7.22;;
8632;SDS011;4354;49.832;10.746;2023-02-18T10:01:39;8.75;;;7.95;;
8632;SDS011;4354;49.832;10.746;2023-02-18T10:04:16;19.05;;;8.45;;
8632;SDS011;4354;49.832;10.746;2023-02-18T10:06:55;8.70;;;7.90;;
8632;SDS011;4354;49.832;10.746;2023-02-18T10:09:34;11.07;;;8.38;;
8632;SDS011;4354;49.832;10.746;2023-02-18T10:12:18;8.70;;;7.90;;
8632;SDS011;4354;49.832;10.746;2023-02-18T10:14:53;9.17;;;7.97;;
8632;SDS011;4354;49.832;10.746;2023-02-18T10:17:22;8.88;;;8.07;;
8632;SDS011;4354;49.832;10.746;2023-02-18T10:19:51;8.63;;;7.50;;
8632;SDS011;4354;49.832;10.746;2023-02-18T10:22:20;9.02;;;7.80;;
8632;SDS011;4354;49.832;10.746;2023-02-18T10:24:50;7.40;;;6.68;;
8632;SDS011;4354;49.832;10.746;2023-02-18T10:27:26;7.43;;;6.73;;
8632;SDS011;4354;49.832;10.746;2023-02-18T10:29:59;8.23;;;7.07;;
8632;SDS011;4354;49.832;10.746;2023-02-18T10:32:42;8.35;;;6.93;;
8632;SDS011;4354;49.832;10.746;2023-02-18T10:45:25;7.82;;;7.05;;
8632;SDS011;4354;49.832;10.746;2023-02-18T10:50:50;6.95;;;6.35;;
8632;SDS011;4354;49.832;10.746;2023-02-18T10:53:30;7.70;;;6.87;;
8632;SDS011;4354;49.832;10.746;2023-02-18T10:56:04;7.77;;;6.97;;
8632;SDS011;4354;49.832;10.746;2023-02-18T10:58:35;7.13;;;6.40;;
8632;SDS011;4354;49.832;10.746;2023-02-18T11:01:12;7.73;;;7.00;;
8632;SDS011;4354;49.832;10.746;2023-02-18T11:06:54;8.05;;;7.10;;
8632;SDS011;4354;49.832;10.746;2023-02-18T11:09:06;7.57;;;6.77;;
8632;SDS011;4354;49.832;10.746;2023-02-18T11:11:48;7.60;;;6.30;;
8632;SDS011;4354;49.832;10.746;2023-02-18T11:15:28;8.10;;;7.30;;
8632;SDS011;4354;49.832;10.746;2023-02-18T11:17:42;6.28;;;5.68;;
8632;SDS011;4354;49.832;10.746;2023-02-18T11:25:33;7.93;;;7.13;;
8632;SDS011;4354;49.832;10.746;2023-02-18T11:28:03;7.90;;;7.10;;
8632;SDS011;4354;49.832;10.746;2023-02-18T11:30:33;7.30;;;6.60;;
8632;SDS011;4354;49.832;10.746;2023-02-18T11:33:21;7.73;;;7.03;;
8632;SDS011;4354;49.832;10.746;2023-02-18T11:35:56;7.70;;;6.90;;
8632;SDS011;4354;49.832;10.746;2023-02-18T11:41:19;7.60;;;6.83;;
8632;SDS011;4354;49.832;10.746;2023-02-18T11:44:16;7.90;;;6.32;;
8632;SDS011;4354;49.832;10.746;2023-02-18T11:47:00;9.50;;;6.80;;
8632;SDS011;4354;49.832;10.746;2023-02-18T11:49:33;7.67;;;6.93;;
8632;SDS011;4354;49.832;10.746;2023-02-18T11:52:21;8.03;;;7.33;;
8632;SDS011;4354;49.832;10.746;2023-02-18T11:57:36;7.55;;;6.75;;
8632;SDS011;4354;49.832;10.746;2023-02-18T12:03:07;7.35;;;6.60;;
8632;SDS011;4354;49.832;10.746;2023-02-18T12:05:54;7.95;;;7.22;;
8632;SDS011;4354;49.832;10.746;2023-02-18T12:08:29;7.53;;;6.83;;
8632;SDS011;4354;49.832;10.746;2023-02-18T12:11:02;8.30;;;6.43;;
8632;SDS011;4354;49.832;10.746;2023-02-18T12:13:41;7.25;;;6.55;;
8632;SDS011;4354;49.832;10.746;2023-02-18T12:27:08;7.22;;;6.53;;
8632;SDS011;4354;49.832;10.746;2023-02-18T12:40:52;5.95;;;5.35;;
8632;SDS011;4354;49.832;10.746;2023-02-18T12:46:26;5.03;;;4.53;;
8632;SDS011;4354;49.832;10.746;2023-02-18T13:16:25;6.60;;;4.93;;
8632;SDS011;4354;49.832;10.746;2023-02-18T13:21:43;5.50;;;4.78;;
8632;SDS011;4354;49.832;10.746;2023-02-18T13:24:16;6.50;;;4.93;;
8632;SDS011;4354;49.832;10.746;2023-02-18T13:26:49;5.47;;;4.97;;
8632;SDS011;4354;49.832;10.746;2023-02-18T13:29:25;5.28;;;4.78;;
8632;SDS011;4354;49.832;10.746;2023-02-18T13:40:48;5.20;;;4.70;;
8632;SDS011;4354;49.832;10.746;2023-02-18T13:43:20;4.97;;;4.57;;
8632;SDS011;4354;49.832;10.746;2023-02-18T13:54:09;5.28;;;4.07;;
8632;SDS011;4354;49.832;10.746;2023-02-18T13:56:39;8.50;;;4.20;;
8632;SDS011;4354;49.832;10.746;2023-02-18T14:04:54;7.30;;;4.20;;
8632;SDS011;4354;49.832;10.746;2023-02-18T14:10:03;6.60;;;4.37;;
8632;SDS011;4354;49.832;10.746;2023-02-18T14:20:32;4.70;;;4.20;;
8632;SDS011;4354;49.832;10.746;2023-02-18T14:25:51;4.33;;;3.90;;
8632;SDS011;4354;49.832;10.746;2023-02-18T14:47:48;5.00;;;3.10;;
8632;SDS011;4354;49.832;10.746;2023-02-18T14:50:35;4.67;;;3.60;;
8632;SDS011;4354;49.832;10.746;2023-02-18T14:53:04;3.77;;;3.47;;
8632;SDS011;4354;49.832;10.746;2023-02-18T14:55:57;4.13;;;3.70;;
8632;SDS011;4354;49.832;10.746;2023-02-18T15:01:17;4.07;;;3.50;;
8632;SDS011;4354;49.832;10.746;2023-02-18T15:03:51;4.80;;;3.50;;
8632;SDS011;4354;49.832;10.746;2023-02-18T15:06:28;3.47;;;3.17;;
8632;SDS011;4354;49.832;10.746;2023-02-18T15:09:00;4.00;;;3.60;;
8632;SDS011;4354;49.832;10.746;2023-02-18T15:11:48;3.93;;;3.30;;
8632;SDS011;4354;49.832;10.746;2023-02-18T15:14:25;5.10;;;3.27;;
8632;SDS011;4354;49.832;10.746;2023-02-18T15:16:55;6.73;;;3.37;;
8632;SDS011;4354;49.832;10.746;2023-02-18T15:19:24;3.80;;;3.50;;
8632;SDS011;4354;49.832;10.746;2023-02-18T15:21:54;3.87;;;3.33;;
8632;SDS011;4354;49.832;10.746;2023-02-18T15:26:58;4.57;;;3.50;;
8632;SDS011;4354;49.832;10.746;2023-02-18T15:29:32;7.17;;;4.20;;
8632;SDS011;4354;49.832;10.746;2023-02-18T15:32:01;4.10;;;3.40;;
8632;SDS011;4354;49.832;10.746;2023-02-18T15:34:44;4.30;;;3.50;;
8632;SDS011;4354;49.832;10.746;2023-02-18T15:37:14;3.90;;;3.50;;
8632;SDS011;4354;49.832;10.746;2023-02-18T15:39:41;4.30;;;3.83;;
8632;SDS011;4354;49.832;10.746;2023-02-18T15:44:50;4.30;;;3.87;;
8632;SDS011;4354;49.832;10.746;2023-02-18T15:47:21;6.43;;;4.07;;
8632;SDS011;4354;49.832;10.746;2023-02-18T15:49:49;5.50;;;4.17;;
8632;SDS011;4354;49.832;10.746;2023-02-18T15:52:26;5.43;;;3.80;;
8632;SDS011;4354;49.832;10.746;2023-02-18T15:54:59;5.87;;;3.73;;
8632;SDS011;4354;49.832;10.746;2023-02-18T15:57:29;5.30;;;4.53;;
8632;SDS011;4354;49.832;10.746;2023-02-18T16:00:11;5.97;;;4.37;;
8632;SDS011;4354;49.832;10.746;2023-02-18T16:02:54;5.47;;;4.43;;
8632;SDS011;4354;49.832;10.746;2023-02-18T16:05:37;5.33;;;4.00;;
8632;SDS011;4354;49.832;10.746;2023-02-18T16:08:11;6.33;;;4.47;;
8632;SDS011;4354;49.832;10.746;2023-02-18T16:13:22;5.30;;;4.80;;
8632;SDS011;4354;49.832;10.746;2023-02-18T16:15:52;5.43;;;4.93;;
8632;SDS011;4354;49.832;10.746;2023-02-18T16:20:53;5.20;;;4.67;;
8632;SDS011;4354;49.832;10.746;2023-02-18T16:23:28;6.60;;;5.90;;
8632;SDS011;4354;49.832;10.746;2023-02-18T16:32:05;6.10;;;4.90;;
8632;SDS011;4354;49.832;10.746;2023-02-18T16:34:32;6.13;;;5.23;;
8632;SDS011;4354;49.832;10.746;2023-02-18T16:37:01;5.37;;;4.80;;
8632;SDS011;4354;49.832;10.746;2023-02-18T16:39:48;6.40;;;5.70;;
8632;SDS011;4354;49.832;10.746;2023-02-18T16:42:17;5.77;;;5.17;;
8632;SDS011;4354;49.832;10.746;2023-02-18T16:44:43;5.23;;;4.63;;
8632;SDS011;4354;49.832;10.746;2023-02-18T16:47:13;6.37;;;4.80;;
8632;SDS011;4354;49.832;10.746;2023-02-18T16:49:45;6.37;;;4.97;;
8632;SDS011;4354;49.832;10.746;2023-02-18T16:52:14;8.07;;;5.20;;
8632;SDS011;4354;49.832;10.746;2023-02-18T16:54:42;9.60;;;4.90;;
8632;SDS011;4354;49.832;10.746;2023-02-18T16:57:09;6.53;;;5.00;;
8632;SDS011;4354;49.832;10.746;2023-02-18T16:59:36;7.43;;;4.90;;
8632;SDS011;4354;49.832;10.746;2023-02-18T17:02:03;5.53;;;4.60;;
8632;SDS011;4354;49.832;10.746;2023-02-18T17:04:30;6.33;;;5.10;;
8632;SDS011;4354;49.832;10.746;2023-02-18T17:06:56;4.47;;;4.07;;
8632;SDS011;4354;49.832;10.746;2023-02-18T17:09:23;4.77;;;4.37;;
8632;SDS011;4354;49.832;10.746;2023-02-18T17:11:53;5.73;;;4.60;;
8632;SDS011;4354;49.832;10.746;2023-02-18T17:14:21;4.47;;;4.03;;
8632;SDS011;4354;49.832;10.746;2023-02-18T17:16:49;5.33;;;4.37;;
8632;SDS011;4354;49.832;10.746;2023-02-18T17:19:18;5.87;;;4.83;;
8632;SDS011;4354;49.832;10.746;2023-02-18T17:21:47;7.87;;;5.00;;
8632;SDS011;4354;49.832;10.746;2023-02-18T17:24:15;6.13;;;5.53;;
8632;SDS011;4354;49.832;10.746;2023-02-18T17:26:43;7.53;;;5.77;;
8632;SDS011;4354;49.832;10.746;2023-02-18T17:29:10;6.17;;;5.53;;
8632;SDS011;4354;49.832;10.746;2023-02-18T17:31:41;6.73;;;5.37;;
8632;SDS011;4354;49.832;10.746;2023-02-18T17:34:14;6.10;;;5.23;;
8632;SDS011;4354;49.832;10.746;2023-02-18T17:37:02;6.77;;;6.03;;
8632;SDS011;4354;49.832;10.746;2023-02-18T17:39:29;7.60;;;6.63;;
8632;SDS011;4354;49.832;10.746;2023-02-18T17:41:56;6.33;;;5.73;;
8632;SDS011;4354;49.832;10.746;2023-02-18T17:44:23;6.43;;;5.77;;
8632;SDS011;4354;49.832;10.746;2023-02-18T17:46:51;6.20;;;5.60;;
8632;SDS011;4354;49.832;10.746;2023-02-18T17:49:19;6.20;;;5.60;;
8632;SDS011;4354;49.832;10.746;2023-02-18T17:51:47;6.87;;;5.63;;
8632;SDS011;4354;49.832;10.746;2023-02-18T17:54:15;6.13;;;5.53;;
8632;SDS011;4354;49.832;10.746;2023-02-18T17:56:44;6.30;;;5.40;;
8632;SDS011;4354;49.832;10.746;2023-02-18T17:59:11;6.20;;;5.27;;
8632;SDS011;4354;49.832;10.746;2023-02-18T18:01:38;6.80;;;5.50;;
8632;SDS011;4354;49.832;10.746;2023-02-18T18:04:10;5.53;;;4.83;;
8632;SDS011;4354;49.832;10.746;2023-02-18T18:06:42;5.30;;;4.80;;
8632;SDS011;4354;49.832;10.746;2023-02-18T18:09:11;5.73;;;4.97;;
8632;SDS011;4354;49.832;10.746;2023-02-18T18:11:38;5.37;;;4.87;;
8632;SDS011;4354;49.832;10.746;2023-02-18T18:14:05;6.10;;;5.23;;
8632;SDS011;4354;49.832;10.746;2023-02-18T18:16:32;5.40;;;4.90;;
8632;SDS011;4354;49.832;10.746;2023-02-18T18:18:59;7.50;;;5.30;;
8632;SDS011;4354;49.832;10.746;2023-02-18T18:23:57;7.60;;;5.37;;
8632;SDS011;4354;49.832;10.746;2023-02-18T18:26:24;7.20;;;5.43;;
8632;SDS011;4354;49.832;10.746;2023-02-18T18:28:51;6.83;;;5.37;;
8632;SDS011;4354;49.832;10.746;2023-02-18T18:31:18;5.60;;;5.10;;
8632;SDS011;4354;49.832;10.746;2023-02-18T18:33:47;5.27;;;4.63;;